sensor_id;sensor_type;location;lat;lon;timestamp;P1;durP1;ratioP1;P2;durP2;ratioP2
52730;SDS011;38624;53.242;6.974;2023-02-12T00:00:37;43.95;;;12.88;;
52730;SDS011;38624;53.242;6.974;2023-02-12T00:03:04;48.35;;;12.68;;
52730;SDS011;38624;53.242;6.974;2023-02-12T00:05:30;38.22;;;11.60;;
52730;SDS011;38624;53.242;6.974;2023-02-12T00:07:56;51.65;;;12.95;;
52730;SDS011;38624;53.242;6.974;2023-02-12T00:10:22;35.90;;;12.37;;
52730;SDS011;38624;53.242;6.974;2023-02-12T00:12:48;41.55;;;13.00;;
52730;SDS011;38624;53.242;6.974;2023-02-12T00:15:14;45.45;;;12.25;;
52730;SDS011;38624;53.242;6.974;2023-02-12T00:17:40;35.42;;;12.50;;
52730;SDS011;38624;53.242;6.974;2023-02-12T00:20:06;36.33;;;12.95;;
52730;SDS011;38624;53.242;6.974;2023-02-12T00:22:32;41.15;;;12.52;;
52730;SDS011;38624;53.242;6.974;2023-02-12T00:24:58;33.83;;;11.75;;
52730;SDS011;38624;53.242;6.974;2023-02-12T00:27:23;43.33;;;11.95;;
52730;SDS011;38624;53.242;6.974;2023-02-12T00:29:49;40.03;;;11.65;;
52730;SDS011;38624;53.242;6.974;2023-02-12T00:32:15;35.05;;;11.27;;
52730;SDS011;38624;53.242;6.974;2023-02-12T00:34:46;42.15;;;11.57;;
52730;SDS011;38624;53.242;6.974;2023-02-12T00:37:12;39.15;;;12.30;;
52730;SDS011;38624;53.242;6.974;2023-02-12T00:39:38;31.45;;;11.18;;
52730;SDS011;38624;53.242;6.974;2023-02-12T00:42:04;30.70;;;10.80;;
52730;SDS011;38624;53.242;6.974;2023-02-12T00:44:30;40.88;;;12.18;;
52730;SDS011;38624;53.242;6.974;2023-02-12T00:46:56;32.88;;;11.15;;
52730;SDS011;38624;53.242;6.974;2023-02-12T00:49:22;40.63;;;10.85;;
52730;SDS011;38624;53.242;6.974;2023-02-12T00:51:48;33.33;;;10.52;;
52730;SDS011;38624;53.242;6.974;2023-02-12T00:54:14;33.38;;;10.75;;
52730;SDS011;38624;53.242;6.974;2023-02-12T00:56:40;34.20;;;10.10;;
52730;SDS011;38624;53.242;6.974;2023-02-12T00:59:06;28.33;;;10.73;;
52730;SDS011;38624;53.242;6.974;2023-02-12T01:01:32;29.45;;;10.45;;
52730;SDS011;38624;53.242;6.974;2023-02-12T01:03:58;26.53;;;10.27;;
52730;SDS011;38624;53.242;6.974;2023-02-12T01:06:23;30.48;;;10.32;;
52730;SDS011;38624;53.242;6.974;2023-02-12T01:08:50;31.02;;;10.40;;
52730;SDS011;38624;53.242;6.974;2023-02-12T01:11:16;37.65;;;10.60;;
52730;SDS011;38624;53.242;6.974;2023-02-12T01:13:41;28.08;;;10.25;;
52730;SDS011;38624;53.242;6.974;2023-02-12T01:16:15;34.85;;;10.82;;
52730;SDS011;38624;53.242;6.974;2023-02-12T01:18:44;35.85;;;10.20;;
52730;SDS011;38624;53.242;6.974;2023-02-12T01:21:14;31.85;;;10.82;;
52730;SDS011;38624;53.242;6.974;2023-02-12T01:23:45;36.90;;;10.88;;
52730;SDS011;38624;53.242;6.974;2023-02-12T01:26:10;27.27;;;10.30;;
52730;SDS011;38624;53.242;6.974;2023-02-12T01:28:37;34.67;;;10.30;;
52730;SDS011;38624;53.242;6.974;2023-02-12T01:31:16;28.77;;;10.60;;
52730;SDS011;38624;53.242;6.974;2023-02-12T01:33:46;26.15;;;10.75;;
52730;SDS011;38624;53.242;6.974;2023-02-12T01:36:12;30.75;;;10.35;;
52730;SDS011;38624;53.242;6.974;2023-02-12T01:38:38;29.70;;;10.02;;
52730;SDS011;38624;53.242;6.974;2023-02-12T01:41:04;29.33;;;10.00;;
52730;SDS011;38624;53.242;6.974;2023-02-12T01:43:32;29.73;;;10.68;;
52730;SDS011;38624;53.242;6.974;2023-02-12T01:46:00;32.60;;;10.48;;
52730;SDS011;38624;53.242;6.974;2023-02-12T01:48:27;25.98;;;10.27;;
52730;SDS011;38624;53.242;6.974;2023-02-12T01:50:56;28.73;;;9.60;;
52730;SDS011;38624;53.242;6.974;2023-02-12T01:53:28;31.88;;;11.07;;
52730;SDS011;38624;53.242;6.974;2023-02-12T01:55:57;31.98;;;11.15;;
52730;SDS011;38624;53.242;6.974;2023-02-12T01:58:26;26.80;;;11.00;;
52730;SDS011;38624;53.242;6.974;2023-02-12T02:01:00;39.88;;;11.10;;
52730;SDS011;38624;53.242;6.974;2023-02-12T02:03:28;30.58;;;11.15;;
52730;SDS011;38624;53.242;6.974;2023-02-12T02:05:55;32.45;;;11.30;;
52730;SDS011;38624;53.242;6.974;2023-02-12T02:08:27;36.83;;;11.27;;
52730;SDS011;38624;53.242;6.974;2023-02-12T02:10:54;32.88;;;11.10;;
52730;SDS011;38624;53.242;6.974;2023-02-12T02:13:20;35.55;;;11.30;;
52730;SDS011;38624;53.242;6.974;2023-02-12T02:16:10;36.08;;;11.00;;
52730;SDS011;38624;53.242;6.974;2023-02-12T02:18:54;35.05;;;11.73;;
52730;SDS011;38624;53.242;6.974;2023-02-12T02:26:49;31.10;;;11.23;;
52730;SDS011;38624;53.242;6.974;2023-02-12T02:32:09;31.67;;;11.90;;
52730;SDS011;38624;53.242;6.974;2023-02-12T02:34:49;34.47;;;11.63;;
52730;SDS011;38624;53.242;6.974;2023-02-12T02:37:46;33.13;;;11.50;;
52730;SDS011;38624;53.242;6.974;2023-02-12T02:40:24;31.48;;;11.98;;
52730;SDS011;38624;53.242;6.974;2023-02-12T02:43:02;33.65;;;11.85;;
52730;SDS011;38624;53.242;6.974;2023-02-12T02:48:28;37.25;;;12.55;;
52730;SDS011;38624;53.242;6.974;2023-02-12T02:51:01;33.97;;;12.45;;
52730;SDS011;38624;53.242;6.974;2023-02-12T02:53:36;35.35;;;11.35;;
52730;SDS011;38624;53.242;6.974;2023-02-12T02:56:08;27.92;;;11.63;;
52730;SDS011;38624;53.242;6.974;2023-02-12T02:58:38;32.15;;;11.52;;
52730;SDS011;38624;53.242;6.974;2023-02-12T03:03:58;28.83;;;12.80;;
52730;SDS011;38624;53.242;6.974;2023-02-12T03:06:35;31.88;;;11.98;;
52730;SDS011;38624;53.242;6.974;2023-02-12T03:09:18;34.20;;;12.88;;
52730;SDS011;38624;53.242;6.974;2023-02-12T03:11:50;33.00;;;12.05;;
52730;SDS011;38624;53.242;6.974;2023-02-12T03:14:22;36.50;;;13.10;;
52730;SDS011;38624;53.242;6.974;2023-02-12T03:17:02;41.30;;;13.48;;
52730;SDS011;38624;53.242;6.974;2023-02-12T03:19:36;35.50;;;13.15;;
52730;SDS011;38624;53.242;6.974;2023-02-12T03:22:08;34.00;;;13.00;;
52730;SDS011;38624;53.242;6.974;2023-02-12T03:27:24;34.45;;;13.50;;
52730;SDS011;38624;53.242;6.974;2023-02-12T03:29:59;33.30;;;13.25;;
52730;SDS011;38624;53.242;6.974;2023-02-12T03:35:11;37.33;;;13.52;;
52730;SDS011;38624;53.242;6.974;2023-02-12T03:40:31;44.03;;;14.50;;
52730;SDS011;38624;53.242;6.974;2023-02-12T03:43:03;41.28;;;14.82;;
52730;SDS011;38624;53.242;6.974;2023-02-12T03:48:43;55.08;;;16.02;;
52730;SDS011;38624;53.242;6.974;2023-02-12T03:51:25;38.30;;;12.75;;
52730;SDS011;38624;53.242;6.974;2023-02-12T03:53:56;52.22;;;12.65;;
52730;SDS011;38624;53.242;6.974;2023-02-12T03:56:31;78.00;;;12.00;;
52730;SDS011;38624;53.242;6.974;2023-02-12T03:59:18;57.55;;;12.07;;
52730;SDS011;38624;53.242;6.974;2023-02-12T04:01:46;46.10;;;11.35;;
52730;SDS011;38624;53.242;6.974;2023-02-12T04:04:13;76.15;;;14.30;;
52730;SDS011;38624;53.242;6.974;2023-02-12T04:06:40;71.07;;;13.00;;
52730;SDS011;38624;53.242;6.974;2023-02-12T04:09:07;141.13;;;14.13;;
52730;SDS011;38624;53.242;6.974;2023-02-12T04:23:02;55.28;;;11.85;;
52730;SDS011;38624;53.242;6.974;2023-02-12T04:31:52;67.82;;;13.27;;
52730;SDS011;38624;53.242;6.974;2023-02-12T04:36:48;94.93;;;15.07;;
52730;SDS011;38624;53.242;6.974;2023-02-12T04:39:21;100.03;;;14.32;;
52730;SDS011;38624;53.242;6.974;2023-02-12T04:41:50;88.47;;;14.57;;
52730;SDS011;38624;53.242;6.974;2023-02-12T04:44:24;133.88;;;16.20;;
52730;SDS011;38624;53.242;6.974;2023-02-12T04:46:51;137.23;;;15.18;;
52730;SDS011;38624;53.242;6.974;2023-02-12T04:49:19;114.60;;;14.43;;
52730;SDS011;38624;53.242;6.974;2023-02-12T04:51:46;63.17;;;11.32;;
52730;SDS011;38624;53.242;6.974;2023-02-12T04:54:13;111.35;;;12.43;;
52730;SDS011;38624;53.242;6.974;2023-02-12T04:56:40;59.42;;;12.40;;
52730;SDS011;38624;53.242;6.974;2023-02-12T04:59:07;83.35;;;12.88;;
52730;SDS011;38624;53.242;6.974;2023-02-12T05:01:33;71.35;;;12.85;;
52730;SDS011;38624;53.242;6.974;2023-02-12T05:06:26;63.22;;;12.50;;
52730;SDS011;38624;53.242;6.974;2023-02-12T05:08:52;74.32;;;11.15;;
52730;SDS011;38624;53.242;6.974;2023-02-12T05:11:18;61.57;;;12.47;;
52730;SDS011;38624;53.242;6.974;2023-02-12T05:13:47;72.57;;;11.52;;
52730;SDS011;38624;53.242;6.974;2023-02-12T05:16:13;47.65;;;11.20;;
52730;SDS011;38624;53.242;6.974;2023-02-12T05:18:39;100.18;;;12.27;;
52730;SDS011;38624;53.242;6.974;2023-02-12T05:21:05;63.42;;;11.00;;
52730;SDS011;38624;53.242;6.974;2023-02-12T05:23:32;70.88;;;11.07;;
52730;SDS011;38624;53.242;6.974;2023-02-12T05:26:00;80.65;;;12.02;;
52730;SDS011;38624;53.242;6.974;2023-02-12T05:28:27;91.38;;;12.73;;
52730;SDS011;38624;53.242;6.974;2023-02-12T05:30:53;109.93;;;12.32;;
52730;SDS011;38624;53.242;6.974;2023-02-12T05:33:19;95.40;;;13.63;;
52730;SDS011;38624;53.242;6.974;2023-02-12T05:35:45;99.65;;;13.85;;
52730;SDS011;38624;53.242;6.974;2023-02-12T05:38:11;124.25;;;14.93;;
52730;SDS011;38624;53.242;6.974;2023-02-12T05:40:36;80.55;;;14.25;;
52730;SDS011;38624;53.242;6.974;2023-02-12T05:43:04;164.38;;;15.10;;
52730;SDS011;38624;53.242;6.974;2023-02-12T05:45:31;96.20;;;14.48;;
52730;SDS011;38624;53.242;6.974;2023-02-12T05:47:57;86.90;;;13.27;;
52730;SDS011;38624;53.242;6.974;2023-02-12T05:50:23;89.90;;;14.98;;
52730;SDS011;38624;53.242;6.974;2023-02-12T05:52:49;143.52;;;15.00;;
52730;SDS011;38624;53.242;6.974;2023-02-12T05:55:14;112.28;;;13.30;;
52730;SDS011;38624;53.242;6.974;2023-02-12T05:57:40;79.90;;;11.70;;
52730;SDS011;38624;53.242;6.974;2023-02-12T06:00:06;99.10;;;14.02;;
52730;SDS011;38624;53.242;6.974;2023-02-12T06:02:33;72.10;;;12.98;;
52730;SDS011;38624;53.242;6.974;2023-02-12T06:04:59;151.77;;;15.10;;
52730;SDS011;38624;53.242;6.974;2023-02-12T06:07:25;163.95;;;15.25;;
52730;SDS011;38624;53.242;6.974;2023-02-12T06:09:51;165.73;;;15.88;;
52730;SDS011;38624;53.242;6.974;2023-02-12T06:12:16;139.38;;;14.02;;
52730;SDS011;38624;53.242;6.974;2023-02-12T06:14:42;79.32;;;10.77;;
52730;SDS011;38624;53.242;6.974;2023-02-12T06:17:08;54.75;;;9.02;;
52730;SDS011;38624;53.242;6.974;2023-02-12T06:19:33;60.50;;;8.07;;
52730;SDS011;38624;53.242;6.974;2023-02-12T06:22:00;53.95;;;7.85;;
52730;SDS011;38624;53.242;6.974;2023-02-12T06:24:26;40.90;;;6.97;;
52730;SDS011;38624;53.242;6.974;2023-02-12T06:26:51;62.90;;;7.70;;
52730;SDS011;38624;53.242;6.974;2023-02-12T06:29:18;48.65;;;8.07;;
52730;SDS011;38624;53.242;6.974;2023-02-12T06:31:44;53.45;;;8.32;;
52730;SDS011;38624;53.242;6.974;2023-02-12T06:34:10;89.63;;;9.25;;
52730;SDS011;38624;53.242;6.974;2023-02-12T06:36:37;71.07;;;8.50;;
52730;SDS011;38624;53.242;6.974;2023-02-12T06:39:05;40.75;;;8.15;;
52730;SDS011;38624;53.242;6.974;2023-02-12T06:41:31;32.13;;;8.20;;
52730;SDS011;38624;53.242;6.974;2023-02-12T06:43:57;55.03;;;8.25;;
52730;SDS011;38624;53.242;6.974;2023-02-12T06:46:23;46.72;;;9.30;;
52730;SDS011;38624;53.242;6.974;2023-02-12T06:48:56;49.25;;;9.30;;
52730;SDS011;38624;53.242;6.974;2023-02-12T06:51:23;90.25;;;9.00;;
52730;SDS011;38624;53.242;6.974;2023-02-12T06:53:50;53.90;;;8.93;;
52730;SDS011;38624;53.242;6.974;2023-02-12T06:58:43;47.60;;;8.23;;
52730;SDS011;38624;53.242;6.974;2023-02-12T07:01:17;96.53;;;9.82;;
52730;SDS011;38624;53.242;6.974;2023-02-12T07:03:58;76.78;;;9.55;;
52730;SDS011;38624;53.242;6.974;2023-02-12T07:06:26;70.07;;;10.13;;
52730;SDS011;38624;53.242;6.974;2023-02-12T07:11:26;73.43;;;9.57;;
52730;SDS011;38624;53.242;6.974;2023-02-12T07:13:54;38.80;;;9.77;;
52730;SDS011;38624;53.242;6.974;2023-02-12T07:16:20;51.97;;;10.57;;
52730;SDS011;38624;53.242;6.974;2023-02-12T07:18:46;116.32;;;11.77;;
52730;SDS011;38624;53.242;6.974;2023-02-12T07:21:12;142.85;;;12.70;;
52730;SDS011;38624;53.242;6.974;2023-02-12T07:23:39;125.22;;;12.02;;
52730;SDS011;38624;53.242;6.974;2023-02-12T07:26:06;84.90;;;11.17;;
52730;SDS011;38624;53.242;6.974;2023-02-12T07:28:34;134.05;;;14.30;;
52730;SDS011;38624;53.242;6.974;2023-02-12T07:31:07;162.13;;;15.15;;
52730;SDS011;38624;53.242;6.974;2023-02-12T07:33:44;134.73;;;13.02;;
52730;SDS011;38624;53.242;6.974;2023-02-12T07:36:11;91.10;;;11.98;;
52730;SDS011;38624;53.242;6.974;2023-02-12T07:38:39;159.95;;;14.02;;
52730;SDS011;38624;53.242;6.974;2023-02-12T07:41:12;144.00;;;13.70;;
52730;SDS011;38624;53.242;6.974;2023-02-12T07:43:43;173.30;;;14.68;;
52730;SDS011;38624;53.242;6.974;2023-02-12T07:46:17;172.63;;;13.98;;
52730;SDS011;38624;53.242;6.974;2023-02-12T07:48:45;181.85;;;14.13;;
52730;SDS011;38624;53.242;6.974;2023-02-12T07:51:13;116.70;;;12.05;;
52730;SDS011;38624;53.242;6.974;2023-02-12T07:53:43;217.77;;;14.77;;
52730;SDS011;38624;53.242;6.974;2023-02-12T07:56:16;95.40;;;11.38;;
52730;SDS011;38624;53.242;6.974;2023-02-12T07:58:48;108.95;;;11.63;;
52730;SDS011;38624;53.242;6.974;2023-02-12T08:03:45;115.97;;;12.48;;
52730;SDS011;38624;53.242;6.974;2023-02-12T08:06:21;131.00;;;13.05;;
52730;SDS011;38624;53.242;6.974;2023-02-12T08:08:56;76.15;;;10.48;;
52730;SDS011;38624;53.242;6.974;2023-02-12T08:11:23;93.38;;;12.63;;
52730;SDS011;38624;53.242;6.974;2023-02-12T08:16:17;65.53;;;10.65;;
52730;SDS011;38624;53.242;6.974;2023-02-12T08:18:44;91.88;;;12.15;;
52730;SDS011;38624;53.242;6.974;2023-02-12T08:21:11;41.63;;;10.20;;
52730;SDS011;38624;53.242;6.974;2023-02-12T08:23:39;66.70;;;10.88;;
52730;SDS011;38624;53.242;6.974;2023-02-12T08:28:36;42.30;;;11.40;;
52730;SDS011;38624;53.242;6.974;2023-02-12T08:31:05;39.22;;;10.77;;
52730;SDS011;38624;53.242;6.974;2023-02-12T08:33:32;51.25;;;10.88;;
52730;SDS011;38624;53.242;6.974;2023-02-12T08:36:05;27.75;;;10.55;;
52730;SDS011;38624;53.242;6.974;2023-02-12T08:38:34;18.95;;;9.70;;
52730;SDS011;38624;53.242;6.974;2023-02-12T08:41:04;16.42;;;9.13;;
52730;SDS011;38624;53.242;6.974;2023-02-12T08:43:34;17.90;;;9.25;;
52730;SDS011;38624;53.242;6.974;2023-02-12T08:46:01;16.90;;;9.07;;
52730;SDS011;38624;53.242;6.974;2023-02-12T08:48:28;16.83;;;9.10;;
52730;SDS011;38624;53.242;6.974;2023-02-12T08:50:54;17.40;;;9.48;;
52730;SDS011;38624;53.242;6.974;2023-02-12T08:53:19;18.33;;;9.40;;
52730;SDS011;38624;53.242;6.974;2023-02-12T08:55:48;20.17;;;9.68;;
52730;SDS011;38624;53.242;6.974;2023-02-12T08:58:14;18.85;;;10.07;;
52730;SDS011;38624;53.242;6.974;2023-02-12T09:00:40;18.45;;;9.68;;
52730;SDS011;38624;53.242;6.974;2023-02-12T09:03:06;18.88;;;9.30;;
52730;SDS011;38624;53.242;6.974;2023-02-12T09:05:31;19.58;;;9.38;;
52730;SDS011;38624;53.242;6.974;2023-02-12T09:07:57;16.52;;;9.07;;
52730;SDS011;38624;53.242;6.974;2023-02-12T09:10:23;19.60;;;9.50;;
52730;SDS011;38624;53.242;6.974;2023-02-12T09:12:48;16.27;;;9.20;;
52730;SDS011;38624;53.242;6.974;2023-02-12T09:15:14;17.17;;;8.80;;
52730;SDS011;38624;53.242;6.974;2023-02-12T09:17:40;16.43;;;9.20;;
52730;SDS011;38624;53.242;6.974;2023-02-12T09:20:07;18.27;;;8.63;;
52730;SDS011;38624;53.242;6.974;2023-02-12T09:22:35;16.52;;;8.60;;
52730;SDS011;38624;53.242;6.974;2023-02-12T09:25:02;16.73;;;9.13;;
52730;SDS011;38624;53.242;6.974;2023-02-12T09:27:29;17.88;;;9.50;;
52730;SDS011;38624;53.242;6.974;2023-02-12T09:29:55;17.10;;;9.07;;
52730;SDS011;38624;53.242;6.974;2023-02-12T09:32:21;19.60;;;9.38;;
52730;SDS011;38624;53.242;6.974;2023-02-12T09:34:47;20.77;;;9.27;;
52730;SDS011;38624;53.242;6.974;2023-02-12T09:37:12;20.10;;;10.38;;
52730;SDS011;38624;53.242;6.974;2023-02-12T09:39:38;20.10;;;9.77;;
52730;SDS011;38624;53.242;6.974;2023-02-12T09:50:31;24.38;;;11.00;;
52730;SDS011;38624;53.242;6.974;2023-02-12T09:53:17;21.00;;;10.07;;
52730;SDS011;38624;53.242;6.974;2023-02-12T09:55:46;22.55;;;11.18;;
52730;SDS011;38624;53.242;6.974;2023-02-12T09:58:32;17.58;;;9.82;;
52730;SDS011;38624;53.242;6.974;2023-02-12T10:01:16;20.50;;;10.80;;
52730;SDS011;38624;53.242;6.974;2023-02-12T10:03:43;20.98;;;10.25;;
52730;SDS011;38624;53.242;6.974;2023-02-12T10:06:15;24.40;;;10.82;;
52730;SDS011;38624;53.242;6.974;2023-02-12T10:08:56;26.05;;;11.07;;
52730;SDS011;38624;53.242;6.974;2023-02-12T10:28:10;22.75;;;11.82;;
52730;SDS011;38624;53.242;6.974;2023-02-12T10:30:26;23.85;;;12.43;;
52730;SDS011;38624;53.242;6.974;2023-02-12T10:33:10;22.15;;;11.73;;
52730;SDS011;38624;53.242;6.974;2023-02-12T10:35:43;21.73;;;11.68;;
52730;SDS011;38624;53.242;6.974;2023-02-12T10:38:21;24.60;;;12.75;;
52730;SDS011;38624;53.242;6.974;2023-02-12T10:40:53;20.77;;;11.32;;
52730;SDS011;38624;53.242;6.974;2023-02-12T10:43:26;28.38;;;14.18;;
52730;SDS011;38624;53.242;6.974;2023-02-12T10:48:22;20.52;;;11.85;;
52730;SDS011;38624;53.242;6.974;2023-02-12T10:51:07;23.02;;;12.88;;
52730;SDS011;38624;53.242;6.974;2023-02-12T10:53:48;25.70;;;12.75;;
52730;SDS011;38624;53.242;6.974;2023-02-12T10:56:15;23.48;;;12.30;;
52730;SDS011;38624;53.242;6.974;2023-02-12T10:58:51;23.92;;;12.73;;
52730;SDS011;38624;53.242;6.974;2023-02-12T11:01:20;22.98;;;12.15;;
52730;SDS011;38624;53.242;6.974;2023-02-12T11:04:18;23.65;;;12.48;;
52730;SDS011;38624;53.242;6.974;2023-02-12T11:06:57;23.50;;;12.02;;
52730;SDS011;38624;53.242;6.974;2023-02-12T11:09:28;24.48;;;12.48;;
52730;SDS011;38624;53.242;6.974;2023-02-12T11:11:55;23.95;;;13.02;;
52730;SDS011;38624;53.242;6.974;2023-02-12T11:14:22;23.45;;;12.15;;
52730;SDS011;38624;53.242;6.974;2023-02-12T11:16:55;24.15;;;12.20;;
52730;SDS011;38624;53.242;6.974;2023-02-12T11:19:24;20.20;;;11.80;;
52730;SDS011;38624;53.242;6.974;2023-02-12T11:22:03;28.10;;;12.40;;
52730;SDS011;38624;53.242;6.974;2023-02-12T11:24:32;20.67;;;11.43;;
52730;SDS011;38624;53.242;6.974;2023-02-12T11:32:04;22.85;;;11.13;;
52730;SDS011;38624;53.242;6.974;2023-02-12T11:34:34;20.88;;;11.02;;
52730;SDS011;38624;53.242;6.974;2023-02-12T11:37:00;20.02;;;11.35;;
52730;SDS011;38624;53.242;6.974;2023-02-12T11:42:13;23.85;;;12.15;;
52730;SDS011;38624;53.242;6.974;2023-02-12T11:44:40;23.20;;;12.50;;
52730;SDS011;38624;53.242;6.974;2023-02-12T11:47:45;23.73;;;12.52;;
52730;SDS011;38624;53.242;6.974;2023-02-12T11:50:07;21.35;;;12.05;;
52730;SDS011;38624;53.242;6.974;2023-02-12T11:53:01;24.02;;;12.82;;
52730;SDS011;38624;53.242;6.974;2023-02-12T11:55:34;23.00;;;12.68;;
52730;SDS011;38624;53.242;6.974;2023-02-12T11:58:03;24.08;;;12.68;;
52730;SDS011;38624;53.242;6.974;2023-02-12T12:00:41;25.33;;;12.23;;
52730;SDS011;38624;53.242;6.974;2023-02-12T12:03:19;22.90;;;12.57;;
52730;SDS011;38624;53.242;6.974;2023-02-12T12:05:57;22.23;;;12.15;;
52730;SDS011;38624;53.242;6.974;2023-02-12T12:11:02;22.92;;;11.93;;
52730;SDS011;38624;53.242;6.974;2023-02-12T12:13:49;19.77;;;11.02;;
52730;SDS011;38624;53.242;6.974;2023-02-12T12:16:26;16.70;;;10.45;;
52730;SDS011;38624;53.242;6.974;2023-02-12T12:19:21;19.50;;;10.82;;
52730;SDS011;38624;53.242;6.974;2023-02-12T12:25:12;19.42;;;10.98;;
52730;SDS011;38624;53.242;6.974;2023-02-12T12:27:54;19.83;;;10.18;;
52730;SDS011;38624;53.242;6.974;2023-02-12T12:30:56;16.50;;;9.45;;
52730;SDS011;38624;53.242;6.974;2023-02-12T12:33:46;16.10;;;9.63;;
52730;SDS011;38624;53.242;6.974;2023-02-12T12:36:50;18.95;;;9.93;;
52730;SDS011;38624;53.242;6.974;2023-02-12T12:58:58;15.95;;;8.88;;
52730;SDS011;38624;53.242;6.974;2023-02-12T13:07:28;8.95;;;4.25;;
52730;SDS011;38624;53.242;6.974;2023-02-12T13:26:31;8.25;;;4.15;;
52730;SDS011;38624;53.242;6.974;2023-02-12T13:29:03;7.60;;;3.45;;
52730;SDS011;38624;53.242;6.974;2023-02-12T13:31:37;7.10;;;3.50;;
52730;SDS011;38624;53.242;6.974;2023-02-12T13:34:12;7.15;;;3.88;;
52730;SDS011;38624;53.242;6.974;2023-02-12T13:36:40;7.72;;;4.00;;
52730;SDS011;38624;53.242;6.974;2023-02-12T13:41:43;8.27;;;3.97;;
52730;SDS011;38624;53.242;6.974;2023-02-12T13:44:21;9.07;;;3.88;;
52730;SDS011;38624;53.242;6.974;2023-02-12T13:52:24;5.20;;;3.20;;
52730;SDS011;38624;53.242;6.974;2023-02-12T13:55:18;5.70;;;3.40;;
52730;SDS011;38624;53.242;6.974;2023-02-12T14:03:34;9.30;;;4.00;;
52730;SDS011;38624;53.242;6.974;2023-02-12T14:08:49;7.05;;;4.22;;
52730;SDS011;38624;53.242;6.974;2023-02-12T14:11:19;10.23;;;4.03;;
52730;SDS011;38624;53.242;6.974;2023-02-12T14:13:52;8.73;;;4.60;;
52730;SDS011;38624;53.242;6.974;2023-02-12T14:19:20;9.73;;;5.10;;
52730;SDS011;38624;53.242;6.974;2023-02-12T14:22:01;8.32;;;4.20;;
52730;SDS011;38624;53.242;6.974;2023-02-12T14:27:06;7.50;;;4.63;;
52730;SDS011;38624;53.242;6.974;2023-02-12T14:29:59;7.93;;;4.57;;
52730;SDS011;38624;53.242;6.974;2023-02-12T14:37:53;8.85;;;4.53;;
52730;SDS011;38624;53.242;6.974;2023-02-12T14:40:36;10.50;;;4.93;;
52730;SDS011;38624;53.242;6.974;2023-02-12T14:51:15;9.50;;;4.55;;
52730;SDS011;38624;53.242;6.974;2023-02-12T14:53:55;5.90;;;3.50;;
52730;SDS011;38624;53.242;6.974;2023-02-12T14:56:23;5.18;;;3.05;;
52730;SDS011;38624;53.242;6.974;2023-02-12T14:58:49;5.22;;;2.90;;
52730;SDS011;38624;53.242;6.974;2023-02-12T15:01:17;5.70;;;3.38;;
52730;SDS011;38624;53.242;6.974;2023-02-12T15:03:53;8.10;;;2.75;;
52730;SDS011;38624;53.242;6.974;2023-02-12T15:06:22;3.85;;;2.40;;
52730;SDS011;38624;53.242;6.974;2023-02-12T15:09:06;4.55;;;2.22;;
52730;SDS011;38624;53.242;6.974;2023-02-12T15:11:46;5.72;;;2.70;;
52730;SDS011;38624;53.242;6.974;2023-02-12T15:14:29;7.80;;;2.67;;
52730;SDS011;38624;53.242;6.974;2023-02-12T15:16:58;4.30;;;2.60;;
52730;SDS011;38624;53.242;6.974;2023-02-12T15:22:23;5.43;;;2.60;;
52730;SDS011;38624;53.242;6.974;2023-02-12T15:28:33;7.15;;;2.97;;
52730;SDS011;38624;53.242;6.974;2023-02-12T15:30:47;5.15;;;3.20;;
52730;SDS011;38624;53.242;6.974;2023-02-12T15:33:25;5.57;;;3.13;;
52730;SDS011;38624;53.242;6.974;2023-02-12T15:35:55;7.75;;;3.15;;
52730;SDS011;38624;53.242;6.974;2023-02-12T15:38:25;5.15;;;3.22;;
52730;SDS011;38624;53.242;6.974;2023-02-12T15:41:02;5.72;;;3.17;;
52730;SDS011;38624;53.242;6.974;2023-02-12T15:43:29;5.88;;;3.08;;
52730;SDS011;38624;53.242;6.974;2023-02-12T15:45:59;5.45;;;3.25;;
52730;SDS011;38624;53.242;6.974;2023-02-12T15:48:30;5.82;;;3.17;;
52730;SDS011;38624;53.242;6.974;2023-02-12T15:53:54;5.03;;;3.85;;
52730;SDS011;38624;53.242;6.974;2023-02-12T15:56:23;8.20;;;4.32;;
52730;SDS011;38624;53.242;6.974;2023-02-12T15:58:54;8.50;;;5.05;;
52730;SDS011;38624;53.242;6.974;2023-02-12T16:01:24;9.23;;;5.97;;
52730;SDS011;38624;53.242;6.974;2023-02-12T16:03:52;11.18;;;6.40;;
52730;SDS011;38624;53.242;6.974;2023-02-12T16:06:20;10.60;;;6.40;;
52730;SDS011;38624;53.242;6.974;2023-02-12T16:08:57;10.90;;;6.68;;
52730;SDS011;38624;53.242;6.974;2023-02-12T16:11:26;9.85;;;6.15;;
52730;SDS011;38624;53.242;6.974;2023-02-12T16:14:00;9.73;;;6.15;;
52730;SDS011;38624;53.242;6.974;2023-02-12T16:16:37;10.25;;;6.57;;
52730;SDS011;38624;53.242;6.974;2023-02-12T16:19:20;11.65;;;6.75;;
52730;SDS011;38624;53.242;6.974;2023-02-12T16:21:52;11.38;;;6.72;;
52730;SDS011;38624;53.242;6.974;2023-02-12T16:24:34;10.52;;;6.95;;
52730;SDS011;38624;53.242;6.974;2023-02-12T16:27:15;11.13;;;6.72;;
52730;SDS011;38624;53.242;6.974;2023-02-12T16:29:53;13.50;;;7.60;;
52730;SDS011;38624;53.242;6.974;2023-02-12T16:34:59;14.05;;;9.13;;
52730;SDS011;38624;53.242;6.974;2023-02-12T16:47:50;17.52;;;9.73;;
52730;SDS011;38624;53.242;6.974;2023-02-12T16:50:21;16.50;;;10.07;;
52730;SDS011;38624;53.242;6.974;2023-02-12T16:52:50;16.08;;;9.35;;
52730;SDS011;38624;53.242;6.974;2023-02-12T16:55:25;16.92;;;10.65;;
52730;SDS011;38624;53.242;6.974;2023-02-12T16:57:50;14.95;;;10.27;;
52730;SDS011;38624;53.242;6.974;2023-02-12T17:00:16;18.38;;;10.05;;
52730;SDS011;38624;53.242;6.974;2023-02-12T17:02:42;17.90;;;10.93;;
52730;SDS011;38624;53.242;6.974;2023-02-12T17:05:09;16.45;;;10.32;;
52730;SDS011;38624;53.242;6.974;2023-02-12T17:10:01;13.98;;;9.05;;
52730;SDS011;38624;53.242;6.974;2023-02-12T17:12:27;16.45;;;10.50;;
52730;SDS011;38624;53.242;6.974;2023-02-12T17:14:53;17.83;;;9.88;;
52730;SDS011;38624;53.242;6.974;2023-02-12T17:17:20;18.58;;;9.90;;
52730;SDS011;38624;53.242;6.974;2023-02-12T17:19:46;18.15;;;10.90;;
52730;SDS011;38624;53.242;6.974;2023-02-12T17:22:17;19.83;;;10.73;;
52730;SDS011;38624;53.242;6.974;2023-02-12T17:24:47;18.08;;;10.90;;
52730;SDS011;38624;53.242;6.974;2023-02-12T17:27:16;17.75;;;10.63;;
52730;SDS011;38624;53.242;6.974;2023-02-12T17:32:08;18.27;;;10.57;;
52730;SDS011;38624;53.242;6.974;2023-02-12T17:34:33;18.20;;;10.88;;
52730;SDS011;38624;53.242;6.974;2023-02-12T17:37:04;15.98;;;10.32;;
52730;SDS011;38624;53.242;6.974;2023-02-12T17:39:30;18.17;;;10.38;;
52730;SDS011;38624;53.242;6.974;2023-02-12T17:41:56;18.33;;;9.85;;
52730;SDS011;38624;53.242;6.974;2023-02-12T17:44:24;15.93;;;10.18;;
52730;SDS011;38624;53.242;6.974;2023-02-12T17:46:50;17.23;;;9.73;;
52730;SDS011;38624;53.242;6.974;2023-02-12T17:49:16;17.13;;;10.25;;
52730;SDS011;38624;53.242;6.974;2023-02-12T17:51:42;22.23;;;11.68;;
52730;SDS011;38624;53.242;6.974;2023-02-12T17:54:08;20.45;;;13.38;;
52730;SDS011;38624;53.242;6.974;2023-02-12T17:56:34;17.50;;;10.93;;
52730;SDS011;38624;53.242;6.974;2023-02-12T17:59:00;16.38;;;10.70;;
52730;SDS011;38624;53.242;6.974;2023-02-12T18:01:26;17.80;;;10.77;;
52730;SDS011;38624;53.242;6.974;2023-02-12T18:03:52;18.58;;;10.35;;
52730;SDS011;38624;53.242;6.974;2023-02-12T18:06:23;18.02;;;11.15;;
52730;SDS011;38624;53.242;6.974;2023-02-12T18:08:51;19.25;;;12.13;;
52730;SDS011;38624;53.242;6.974;2023-02-12T18:11:17;16.40;;;10.87;;